Time;durP1;ratioP1;P1;durP2;ratioP2;P2;SDS_P1;SDS_P2;PMS_P1;PMS_P2;Temp;Humidity;BMP_temperature;BMP_pressure;BME280_temperature;BME280_humidity;BME280_pressure;Samples;Min_cycle;Max_cycle;Signal;HPM_P1;HPM_P2
2022/10/23 00:01:42;;;;;;;35.10;16.00;;;14.30;99.90;;;13.21;100.00;101117.28;5027899;28;20085;-83
2022/10/23 00:04:13;;;;;;;35.42;15.75;;;14.30;99.90;;;13.20;100.00;101115.56;5026340;28;20033;-84
2022/10/23 00:06:45;;;;;;;29.00;15.27;;;14.30;99.90;;;13.20;100.00;101113.78;5029175;28;20040;-83
2022/10/23 00:09:14;;;;;;;37.05;15.25;;;14.30;99.90;;;13.20;100.00;101108.50;5024457;28;20529;-84
2022/10/23 00:11:41;;;;;;;26.60;14.40;;;14.30;99.90;;;13.21;100.00;101115.47;5023320;28;20032;-84
2022/10/23 00:14:13;;;;;;;33.40;15.80;;;;;;;13.25;100.00;101118.84;5025689;28;20063;-83
2022/10/23 00:16:39;;;;;;;31.25;15.85;;;14.30;99.90;;;13.24;100.00;101115.34;5027425;28;20457;-82
2022/10/23 00:19:06;;;;;;;29.77;15.93;;;14.30;99.90;;;13.24;100.00;101112.69;5025280;28;20109;-84
2022/10/23 00:21:31;;;;;;;32.90;15.73;;;14.30;99.90;;;13.24;100.00;101117.97;5023788;28;20022;-82
2022/10/23 00:23:57;;;;;;;35.33;15.85;;;14.30;99.90;;;13.22;100.00;101130.44;5022249;28;20125;-83
2022/10/23 00:26:29;;;;;;;35.10;15.82;;;14.30;99.90;;;13.20;100.00;101124.34;5007906;28;20030;-83
2022/10/23 00:28:55;;;;;;;29.98;15.57;;;14.30;99.90;;;13.18;100.00;101115.66;5014314;28;20033;-83
2022/10/23 00:31:23;;;;;;;26.08;13.38;;;14.30;99.90;;;13.19;100.00;101114.69;5009978;28;20057;-83
2022/10/23 00:33:49;;;;;;;34.20;15.48;;;14.20;99.90;;;13.15;100.00;101099.91;5007126;28;20032;-82
2022/10/23 00:36:20;;;;;;;30.42;15.32;;;14.20;99.90;;;13.08;100.00;101107.31;5023806;28;20032;-84
2022/10/23 00:38:48;;;;;;;26.98;14.20;;;14.20;99.90;;;13.02;100.00;101109.41;5005522;28;20033;-83
2022/10/23 00:41:27;;;;;;;41.33;15.77;;;14.10;99.90;;;12.91;100.00;101109.97;5028808;28;20071;-83
2022/10/23 00:44:36;;;;;;;37.03;15.60;;;13.90;99.90;;;12.81;100.00;101112.22;5036384;28;20013;-83
2022/10/23 00:47:02;;;;;;;39.45;16.00;;;13.90;99.90;;;12.71;100.00;101113.59;5019247;28;20046;-85
2022/10/23 00:49:28;;;;;;;24.08;11.38;;;13.80;99.90;;;12.65;100.00;101111.25;5014508;28;20071;-85
2022/10/23 00:52:06;;;;;;;38.95;16.70;;;13.70;99.90;;;12.59;100.00;101112.44;5028052;28;20029;-85
2022/10/23 00:54:37;;;;;;;34.65;16.35;;;13.60;99.90;;;12.55;100.00;101117.91;5028041;28;20037;-83
2022/10/23 00:57:14;;;;;;;182.57;31.88;;;13.70;99.90;;;12.49;100.00;101119.94;5091568;23;20379;-79
2022/10/23 01:00:10;;;;;;;35.10;16.98;;;13.60;99.90;;;12.43;100.00;101122.88;5046160;28;20025;-77
2022/10/23 01:06:53;;;;;;;30.70;17.20;;;13.50;99.90;;;12.27;100.00;101122.75;5029433;28;20048;-77
2022/10/23 01:10:04;;;;;;;42.72;17.85;;;13.40;99.90;;;12.19;100.00;101122.25;4939931;28;20496;-78
2022/10/23 01:13:11;;;;;;;37.30;18.65;;;13.30;99.90;;;12.09;100.00;101119.19;5020045;28;20144;-78
2022/10/23 01:16:11;;;;;;;40.40;18.50;;;13.20;99.90;;;12.03;100.00;101122.13;5017839;28;20092;-78
2022/10/23 01:19:03;;;;;;;40.60;19.02;;;;;;;11.96;100.00;101125.94;5013477;28;20128;-78
2022/10/23 01:21:46;;;;;;;47.55;19.85;;;13.10;99.90;;;11.87;100.00;101127.19;5018123;28;20521;-78
2022/10/23 01:25:01;;;;;;;41.47;19.98;;;13.00;99.90;;;11.86;100.00;101125.50;5028166;28;20453;-78
2022/10/23 01:28:13;;;;;;;41.72;20.40;;;13.00;99.90;;;11.78;100.00;101132.06;5018204;28;20456;-77
2022/10/23 01:31:23;;;;;;;44.50;20.92;;;;;;;11.74;100.00;101133.09;5011435;28;20041;-78
2022/10/23 01:34:15;;;;;;;47.40;21.83;;;;;;;11.73;100.00;101140.19;5037608;28;20024;-78
2022/10/23 01:36:46;;;;;;;45.50;19.90;;;;;;;11.74;100.00;101141.03;5017732;28;20127;-78
2022/10/23 01:40:13;;;;;;;39.13;21.67;;;12.90;99.90;;;11.73;100.00;101134.91;5036855;28;20024;-78
2022/10/23 01:43:04;;;;;;;47.58;23.13;;;12.80;99.90;;;11.74;100.00;101141.88;4920581;29;20054;-78
2022/10/23 01:46:06;;;;;;;52.95;23.98;;;12.80;99.90;;;11.75;100.00;101148.00;4930978;29;20079;-78
2022/10/23 01:52:11;;;;;;;59.90;24.10;;;12.80;99.90;;;11.65;100.00;101140.50;4893092;28;20197;-78
2022/10/23 01:55:04;;;;;;;47.83;23.15;;;12.80;99.90;;;11.62;100.00;101142.41;4967371;28;20126;-78
2022/10/23 01:57:44;;;;;;;50.08;24.15;;;12.70;99.90;;;11.56;100.00;101147.97;5021750;28;20025;-78
2022/10/23 02:00:24;;;;;;;46.53;19.77;;;;;;;11.48;100.00;101146.50;5031720;28;20063;-78
2022/10/23 02:03:03;;;;;;;48.05;24.50;;;12.60;99.90;;;11.44;100.00;101141.44;5041559;28;20033;-78
2022/10/23 02:05:49;;;;;;;55.95;25.23;;;12.60;99.90;;;11.41;100.00;101144.22;5028746;28;20034;-78
2022/10/23 02:08:40;;;;;;;55.25;25.27;;;12.60;99.90;;;11.34;100.00;101148.03;5039696;28;20409;-77
2022/10/23 02:14:52;;;;;;;60.03;26.03;;;;;;;11.29;100.00;101158.78;5038875;28;20037;-78
2022/10/23 02:18:30;;;;;;;70.13;26.40;;;12.40;99.90;;;11.24;100.00;101158.97;5039935;28;20032;-78
2022/10/23 02:21:17;;;;;;;61.47;26.27;;;12.40;99.90;;;11.20;100.00;101157.38;4915617;29;20067;-78
2022/10/23 02:24:22;;;;;;;59.30;27.13;;;;;;;11.20;100.00;101157.38;4916867;29;20038;-78
2022/10/23 02:27:04;;;;;;;70.20;27.55;;;12.30;99.90;;;11.14;100.00;101147.09;5034684;28;20056;-79
2022/10/23 02:30:03;;;;;;;71.75;26.88;;;12.30;99.90;;;11.10;100.00;101140.28;5022459;28;20163;-79
2022/10/23 02:32:55;;;;;;;71.05;27.77;;;12.20;99.90;;;11.06;100.00;101143.97;4951538;28;20528;-78
2022/10/23 02:35:24;;;;;;;63.20;27.27;;;12.20;99.90;;;10.98;100.00;101138.16;4954481;28;20061;-78
2022/10/23 02:38:45;;;;;;;63.72;27.27;;;12.10;99.90;;;10.93;100.00;101142.72;4954212;28;20050;-79
2022/10/23 02:42:05;;;;;;;69.55;27.42;;;12.10;99.90;;;10.86;100.00;101137.75;4946015;28;20066;-78
2022/10/23 02:45:16;;;;;;;66.30;26.30;;;12.00;99.90;;;10.83;100.00;101135.22;5022740;28;20036;-78
2022/10/23 02:48:13;;;;;;;63.78;26.35;;;12.00;99.90;;;10.77;100.00;101135.47;5022809;28;20037;-78
2022/10/23 02:51:13;;;;;;;69.38;27.98;;;11.90;99.90;;;10.73;100.00;101146.19;5026493;28;20029;-79
2022/10/23 02:54:05;;;;;;;73.45;28.67;;;11.90;99.90;;;10.67;100.00;101144.69;5040358;28;20125;-78
2022/10/23 02:58:03;;;;;;;62.05;27.45;;;11.90;99.90;;;10.64;100.00;101140.38;5037930;23;20114;-78
2022/10/23 03:01:15;;;;;;;70.53;27.83;;;11.80;99.90;;;10.61;100.00;101143.13;5029454;28;20041;-78
2022/10/23 03:03:56;;;;;;;65.80;29.27;;;11.80;99.90;;;10.62;100.00;101142.19;5033219;28;20033;-78
2022/10/23 03:06:23;;;;;;;75.35;28.73;;;11.80;99.90;;;10.64;100.00;101152.69;5039280;28;20022;-78
2022/10/23 03:08:58;;;;;;;74.95;29.40;;;11.80;99.90;;;10.65;100.00;101154.41;5030938;28;20017;-78
2022/10/23 03:11:24;;;;;;;67.00;29.23;;;11.80;99.90;;;10.65;100.00;101150.00;5036516;28;20034;-78
2022/10/23 03:13:50;;;;;;;73.28;29.23;;;11.90;99.90;;;10.67;100.00;101147.31;5042594;28;20048;-78
2022/10/23 03:16:16;;;;;;;79.63;29.40;;;11.90;99.90;;;10.68;100.00;101149.88;5040894;28;20022;-78
2022/10/23 03:18:44;;;;;;;79.20;31.38;;;11.90;99.90;;;10.69;100.00;101150.75;5041352;28;20040;-79
2022/10/23 03:21:09;;;;;;;78.43;31.52;;;11.90;99.90;;;10.72;100.00;101163.78;5038186;28;20038;-78
2022/10/23 03:23:35;;;;;;;66.40;30.70;;;11.90;99.90;;;10.75;100.00;101160.16;5020494;28;20036;-78
2022/10/23 03:26:01;;;;;;;82.50;32.20;;;11.90;99.90;;;10.76;100.00;101156.63;5043769;28;20036;-78
2022/10/23 03:28:27;;;;;;;81.18;32.75;;;12.00;99.90;;;10.79;100.00;101156.47;5009570;28;20117;-79
2022/10/23 03:30:52;;;;;;;70.75;31.67;;;12.00;99.90;;;10.85;100.00;101153.59;5023096;28;20528;-78
2022/10/23 03:33:18;;;;;;;80.85;32.05;;;12.00;99.90;;;10.87;100.00;101157.88;5020986;28;20026;-78
2022/10/23 03:35:51;;;;;;;73.22;30.23;;;12.00;99.90;;;10.90;100.00;101159.53;5033613;23;20728;-78
2022/10/23 03:38:20;;;;;;;85.15;31.15;;;12.00;99.90;;;10.87;100.00;101151.75;5049858;28;20033;-78
2022/10/23 03:40:46;;;;;;;91.15;32.88;;;;;;;10.91;100.00;101163.00;5045449;28;20032;-78
2022/10/23 03:43:20;;;;;;;72.00;30.90;;;12.10;99.90;;;10.90;100.00;101158.69;5048172;28;20031;-78
2022/10/23 03:45:46;;;;;;;80.78;32.13;;;12.10;99.90;;;10.87;100.00;101163.16;5046238;28;20025;-78
2022/10/23 03:48:13;;;;;;;84.75;32.03;;;12.10;99.90;;;10.87;100.00;101151.75;5024123;28;20055;-78
2022/10/23 03:50:39;;;;;;;81.07;31.92;;;12.10;99.90;;;10.90;100.00;101159.53;5007447;28;20043;-78
2022/10/23 03:53:12;;;;;;;73.53;30.50;;;12.10;99.90;;;10.88;100.00;101156.97;5029424;28;20135;-78
2022/10/23 03:55:51;;;;;;;80.28;31.30;;;12.10;99.90;;;10.91;100.00;101157.75;5036199;23;20037;-79
2022/10/23 03:58:17;;;;;;;69.85;29.98;;;12.10;99.90;;;10.91;100.00;101160.38;5044483;28;20044;-79
2022/10/23 04:00:43;;;;;;;70.25;30.38;;;12.10;99.90;;;10.90;100.00;101159.53;5029522;28;20029;-78
2022/10/23 04:03:34;;;;;;;77.93;30.70;;;12.10;99.90;;;10.90;100.00;101154.25;5045054;28;20041;-78
2022/10/23 04:06:03;;;;;;;84.15;30.80;;;12.10;99.90;;;10.88;100.00;101156.97;5044427;28;20029;-78
2022/10/23 04:08:44;;;;;;;92.72;32.92;;;12.10;99.90;;;10.86;100.00;101158.81;5046363;28;20062;-78
2022/10/23 04:11:19;;;;;;;98.93;32.38;;;12.00;99.90;;;10.84;100.00;101152.75;5060543;28;20126;-78
2022/10/23 04:13:45;;;;;;;79.68;32.25;;;12.00;99.90;;;10.84;100.00;101158.03;5026377;28;20032;-78
2022/10/23 04:16:20;;;;;;;81.88;32.92;;;12.00;99.90;;;10.79;100.00;101157.31;5051121;23;20125;-78
2022/10/23 04:18:52;;;;;;;93.20;33.33;;;12.00;99.90;;;10.78;100.00;101160.06;5037383;28;20029;-81
2022/10/23 04:21:30;;;;;;;82.40;34.05;;;12.00;99.90;;;10.75;100.00;101166.28;5022258;28;20498;-78
2022/10/23 04:23:56;;;;;;;93.53;34.13;;;11.90;99.90;;;10.69;100.00;101158.66;5044932;28;20053;-78
2022/10/23 04:26:21;;;;;;;106.47;34.72;;;11.90;99.90;;;10.65;100.00;101160.53;5028724;28;20032;-79
2022/10/23 04:28:52;;;;;;;262.75;46.13;;;11.80;99.90;;;10.59;100.00;101157.28;5041040;28;20030;-78
2022/10/23 04:31:18;;;;;;;90.63;31.48;;;11.80;99.90;;;10.49;100.00;101161.19;5040695;28;20026;-79
2022/10/23 04:33:43;;;;;;;152.02;38.30;;;11.60;99.90;;;10.32;100.00;101154.81;5036239;28;21315;-78
2022/10/23 04:36:09;;;;;;;111.63;36.75;;;11.60;99.90;;;10.27;100.00;101165.47;5036000;28;20037;-78
2022/10/23 04:38:35;;;;;;;132.27;39.85;;;11.50;99.90;;;10.25;100.00;101171.72;5024313;28;20040;-78
2022/10/23 04:41:01;;;;;;;150.15;40.90;;;11.50;99.90;;;10.29;100.00;101167.22;5041111;28;20029;-78
2022/10/23 04:43:35;;;;;;;165.52;42.03;;;11.50;99.90;;;10.30;100.00;101168.94;5038357;28;20042;-78
2022/10/23 04:46:01;;;;;;;207.55;44.03;;;11.50;99.90;;;10.29;100.00;101170.72;5035515;28;20116;-78
2022/10/23 04:48:27;;;;;;;219.43;40.38;;;11.50;99.90;;;10.26;100.00;101170.81;5036693;28;20040;-78
2022/10/23 04:51:03;;;;;;;212.45;37.28;;;11.40;99.90;;;10.16;100.00;101172.06;5042121;28;20025;-78
2022/10/23 04:53:30;;;;;;;159.00;30.92;;;11.40;99.90;;;10.08;100.00;101174.97;5039703;28;20034;-78
2022/10/23 04:55:58;;;;;;;81.05;28.45;;;11.30;99.90;;;10.01;100.00;101176.97;5056510;23;20428;-78
2022/10/23 04:58:30;;;;;;;324.08;41.38;;;;;;;9.95;100.00;101174.56;5060254;28;20127;-78
2022/10/23 05:00:57;;;;;;;322.77;40.05;;;11.20;99.90;;;9.93;100.00;101176.41;5082130;28;20023;-78
2022/10/23 05:03:24;;;;;;;250.90;38.47;;;11.10;99.90;;;9.91;100.00;101180.88;5063342;28;20111;-77
2022/10/23 05:05:59;;;;;;;434.73;40.65;;;11.20;99.90;;;9.92;100.00;101185.22;5087659;28;20082;-78
2022/10/23 05:08:25;;;;;;;251.07;37.03;;;11.20;99.90;;;9.89;100.00;101185.31;5079991;28;20101;-78
2022/10/23 05:10:50;;;;;;;206.65;38.03;;;11.10;99.90;;;9.88;100.00;101185.41;5067553;28;20484;-78
2022/10/23 05:13:18;;;;;;;328.25;40.38;;;11.10;99.90;;;9.88;100.00;101185.41;5060578;28;20408;-78
2022/10/23 05:15:50;;;;;;;341.40;39.63;;;11.10;99.90;;;9.88;100.00;101194.13;5046200;28;20040;-78
2022/10/23 05:18:33;;;;;;;136.52;35.95;;;11.10;99.90;;;9.86;100.00;101190.69;5060858;28;20054;-78
2022/10/23 05:21:10;;;;;;;124.88;35.22;;;11.10;99.90;;;9.83;100.00;101189.03;5062316;28;20071;-78
2022/10/23 05:23:38;;;;;;;142.02;37.88;;;11.10;99.90;;;9.82;100.00;101195.22;5070730;28;20055;-78
2022/10/23 05:26:04;;;;;;;189.07;40.25;;;11.10;99.90;;;9.81;100.00;101190.88;5067513;28;20032;-78
2022/10/23 05:28:30;;;;;;;591.85;48.40;;;11.10;99.90;;;9.80;100.00;101190.91;5061194;28;20127;-78
2022/10/23 05:31:02;;;;;;;1148.70;52.78;;;11.10;99.90;;;9.78;100.00;101188.38;5066785;28;20041;-79
2022/10/23 05:33:29;;;;;;;1223.20;56.50;;;11.10;99.90;;;9.78;100.00;101184.84;5064554;28;20032;-78
2022/10/23 05:35:55;;;;;;;578.35;47.80;;;11.00;99.90;;;9.76;100.00;101190.19;5072762;22;20791;-78
2022/10/23 05:38:21;;;;;;;578.10;44.67;;;11.00;99.90;;;9.76;100.00;101198.09;5065812;28;20036;-78
2022/10/23 05:40:53;;;;;;;613.97;45.08;;;11.00;99.90;;;9.76;100.00;101189.31;5065636;28;20024;-78
2022/10/23 05:43:18;;;;;;;504.70;44.90;;;11.00;99.90;;;9.73;100.00;101189.44;5065857;28;20119;-79
2022/10/23 05:45:44;;;;;;;500.58;45.28;;;11.00;99.90;;;9.74;100.00;101192.03;5066225;28;20040;-78
2022/10/23 05:48:14;;;;;;;545.85;47.30;;;11.00;99.90;;;9.73;100.00;101195.53;5064729;28;20504;-78
2022/10/23 05:50:42;;;;;;;637.15;46.17;;;11.00;99.90;;;9.73;100.00;101194.69;5061062;28;20112;-78
2022/10/23 05:53:12;;;;;;;1140.78;56.15;;;11.00;99.90;;;9.71;100.00;101186.84;5065084;28;20046;-79
2022/10/23 05:55:37;;;;;;;1269.05;59.85;;;11.00;99.90;;;9.70;100.00;101194.78;5064655;28;20036;-78
2022/10/23 05:58:04;;;;;;;1229.00;53.97;;;11.00;99.90;;;9.69;100.00;101190.44;5063828;28;20107;-78
2022/10/23 06:00:30;;;;;;;942.42;44.42;;;10.90;99.90;;;9.67;100.00;101189.66;5072420;28;20113;-78
2022/10/23 06:03:02;;;;;;;1083.88;50.05;;;10.90;99.90;;;9.62;100.00;101187.19;5062041;28;20488;-78
2022/10/23 06:05:28;;;;;;;693.88;36.25;;;10.80;99.90;;;9.54;100.00;101191.84;5062995;28;20032;-79
2022/10/23 06:08:04;;;;;;;599.92;32.10;;;10.70;99.90;;;9.41;100.00;101192.25;5084645;28;20081;-79
2022/10/23 06:10:30;;;;;;;175.23;20.40;;;10.70;99.90;;;9.36;100.00;101195.97;5063082;28;20102;-78
2022/10/23 06:12:56;;;;;;;753.55;35.88;;;10.60;99.90;;;9.32;100.00;101195.22;5064751;28;20029;-78
2022/10/23 06:15:22;;;;;;;328.05;25.20;;;10.60;99.90;;;9.30;100.00;101190.91;5065951;28;20024;-79
2022/10/23 06:17:48;;;;;;;350.17;26.08;;;10.50;99.90;;;9.34;100.00;101187.28;5071105;28;20108;-78
2022/10/23 06:20:14;;;;;;;769.58;43.28;;;10.50;99.90;;;9.36;100.00;101195.97;5083531;28;20107;-78
2022/10/23 06:22:47;;;;;;;588.75;37.65;;;10.50;99.90;;;9.41;100.00;101194.88;5063420;28;20016;-78
2022/10/23 06:25:13;;;;;;;269.90;27.23;;;10.60;99.90;;;9.53;100.00;101198.88;5065362;28;20033;-78
2022/10/23 06:27:39;;;;;;;429.67;32.58;;;10.70;99.90;;;9.67;100.00;101202.78;5064930;28;20024;-78
2022/10/23 06:30:06;;;;;;;803.90;38.20;;;10.70;99.90;;;9.79;100.00;101200.59;5065478;28;20123;-78
2022/10/23 06:32:34;;;;;;;193.98;25.02;;;10.80;99.90;;;9.87;100.00;101197.69;5054153;28;20028;-78
2022/10/23 06:35:00;;;;;;;717.40;40.55;;;10.90;99.90;;;9.96;100.00;101197.34;5049635;28;20039;-78
2022/10/23 06:37:26;;;;;;;716.72;49.63;;;11.00;99.90;;;10.02;100.00;101189.25;5062927;28;20038;-78
2022/10/23 06:39:51;;;;;;;226.88;26.40;;;11.00;99.90;;;10.09;100.00;101202.19;5062736;28;20082;-79
2022/10/23 06:42:17;;;;;;;452.95;30.20;;;11.10;99.90;;;10.18;100.00;101200.03;5073833;28;20119;-79
2022/10/23 06:44:43;;;;;;;532.42;31.33;;;11.20;99.90;;;10.24;100.00;101198.97;5066463;28;20735;-78
2022/10/23 06:47:13;;;;;;;278.95;24.17;;;11.20;99.90;;;10.29;100.00;101199.69;5048353;28;20115;-80
2022/10/23 06:49:41;;;;;;;615.97;33.20;;;11.30;99.90;;;10.34;100.00;101189.81;5082222;28;20056;-78
2022/10/23 06:52:07;;;;;;;650.15;41.70;;;11.40;99.90;;;10.35;100.00;101194.19;5069886;28;20024;-78
2022/10/23 06:54:33;;;;;;;484.27;36.45;;;11.40;99.90;;;10.45;100.00;101194.66;5048827;28;20055;-80
2022/10/23 07:00:41;;;;;;;365.25;27.17;;;11.50;99.90;;;10.73;100.00;101198.88;5050182;22;20073;-86
2022/10/23 07:09:48;;;;;;;666.80;43.10;;;;;;;11.02;100.00;101200.34;4947103;28;20810;-85
2022/10/23 07:12:23;;;;;;;536.25;36.28;;;;;;;11.15;100.00;101196.28;4933932;29;20037;-86
2022/10/23 07:15:36;;;;;;;809.65;42.45;;;12.10;99.90;;;11.28;100.00;101208.00;4937707;28;20035;-88
2022/10/23 07:18:04;;;;;;;548.30;34.08;;;;;;;11.41;100.00;101212.78;4924728;28;20043;-85
2022/10/23 07:21:25;;;;;;;;;;;;;;;;;;;;;
2022/10/23 07:23:53;;;;;;;570.88;41.97;;;;;;;11.32;100.00;101211.41;4948192;28;20027;-86
2022/10/23 07:27:02;;;;;;;633.15;44.42;;;12.30;99.90;;;11.28;100.00;101215.94;4951914;28;20039;-85
2022/10/23 07:29:34;;;;;;;411.83;36.53;;;12.30;99.90;;;11.32;100.00;101221.06;4932139;28;20039;-85
2022/10/23 07:32:44;;;;;;;447.17;39.67;;;;;;;11.33;100.00;101217.50;4920637;29;20117;-86
2022/10/23 07:35:24;;;;;;;354.38;33.80;;;;;;;11.41;100.00;101225.97;4899214;29;20047;-85
2022/10/23 07:38:05;;;;;;;286.52;27.27;;;;;;;11.55;100.00;101231.50;5007598;28;20038;-85
2022/10/23 07:40:44;;;;;;;204.93;29.17;;;;;;;11.72;100.00;101232.56;4986890;28;20034;-84
2022/10/23 07:46:21;;;;;;;480.90;38.92;;;12.80;99.90;;;11.88;100.00;101245.06;4992847;28;20056;-87
2022/10/23 07:49:18;;;;;;;367.45;33.00;;;12.80;99.90;;;11.83;100.00;101241.72;4976228;28;20038;-85
2022/10/23 07:52:13;;;;;;;500.27;37.20;;;12.80;99.90;;;11.76;100.00;101247.34;4975959;28;20037;-87
2022/10/23 07:54:51;;;;;;;511.95;37.83;;;;;;;11.65;100.00;101240.72;4970775;28;20034;-85
2022/10/23 07:57:43;;;;;;;352.08;30.83;;;12.70;99.90;;;11.64;100.00;101240.78;4987671;28;20076;-88
2022/10/23 08:00:23;;;;;;;588.95;39.22;;;12.40;99.90;;;11.69;100.00;101246.75;4963736;28;20061;-85
2022/10/23 08:02:52;;;;;;;619.67;38.60;;;12.70;99.90;;;11.78;100.00;101248.13;4970778;28;20113;-85
2022/10/23 08:09:34;;;;;;;799.50;44.50;;;12.90;99.90;;;11.90;100.00;101243.22;5004657;28;20085;-85
2022/10/23 08:15:23;;;;;;;548.30;37.28;;;;;;;12.01;100.00;101250.66;4979768;28;20092;-86
2022/10/23 08:18:52;;;;;;;556.58;39.72;;;13.00;99.90;;;12.13;100.00;101248.38;4985974;28;20069;-85
2022/10/23 08:21:44;;;;;;;536.10;37.55;;;13.10;99.90;;;12.06;100.00;101256.56;4992535;28;20109;-84
2022/10/23 08:27:42;;;;;;;711.03;44.20;;;;;;;12.11;100.00;101251.94;4994524;28;20046;-87
2022/10/23 08:31:23;;;;;;;754.58;44.97;;;13.10;99.90;;;12.16;100.00;101248.25;4979780;28;20088;-85
2022/10/23 08:34:46;;;;;;;;;;;;;;;;;;;;;
2022/10/23 08:37:34;;;;;;;653.40;40.80;;;13.30;99.90;;;12.36;100.00;101257.94;4948975;28;20044;-86
2022/10/23 08:40:24;;;;;;;771.17;47.20;;;;;;;12.40;100.00;101248.94;4972431;28;20026;-85
2022/10/23 08:43:40;;;;;;;600.03;39.95;;;13.40;99.90;;;12.37;100.00;101255.19;4983458;28;20038;-86
2022/10/23 08:47:04;;;;;;;239.73;34.47;;;13.40;99.90;;;12.44;100.00;101254.00;4981915;28;20630;-85
2022/10/23 08:50:12;;;;;;;128.73;31.67;;;;;;;12.42;100.00;101244.41;4887025;29;20699;-85
2022/10/23 08:52:53;;;;;;;176.93;35.25;;;13.50;99.90;;;12.51;100.00;101250.16;4988077;28;20038;-88
2022/10/23 08:59:41;;;;;;;281.85;35.75;;;13.60;99.90;;;12.63;100.00;101253.13;5098096;22;20045;-85
2022/10/23 09:03:01;;;;;;;136.07;32.72;;;13.60;99.90;;;12.72;100.00;101252.69;5039810;28;20106;-85
2022/10/23 09:06:29;;;;;;;330.85;39.58;;;13.80;99.90;;;12.83;100.00;101237.22;5044227;28;20041;-85
2022/10/23 09:10:03;;;;;;;307.35;37.70;;;13.90;99.90;;;13.04;100.00;101247.66;4990666;28;20043;-86
2022/10/23 09:12:41;;;;;;;316.30;38.60;;;;;;;13.25;100.00;101246.63;4979411;28;20508;-86
2022/10/23 09:16:14;;;;;;;361.40;37.58;;;14.10;99.90;;;13.36;100.00;101242.63;5024083;28;20038;-84
2022/10/23 09:19:01;;;;;;;91.65;27.77;;;14.30;99.90;;;13.42;100.00;101240.53;5077186;23;20540;-85
2022/10/23 09:21:31;;;;;;;185.75;35.45;;;;;;;13.44;100.00;101241.31;5011192;28;20041;-85
2022/10/23 09:27:22;;;;;;;252.77;37.08;;;;;;;13.28;100.00;101251.81;5028851;28;20409;-86
2022/10/23 09:30:37;;;;;;;179.65;34.42;;;;;;;13.28;100.00;101257.09;5008847;28;20034;-87
2022/10/23 09:33:25;;;;;;;117.20;31.40;;;;;;;13.30;100.00;101260.50;5017633;28;20026;-87
2022/10/23 09:36:35;;;;;;;;;;;;;;;;;;;;;
2022/10/23 09:39:01;;;;;;;218.77;36.15;;;14.40;99.90;;;13.54;100.00;101262.84;5079481;23;20048;-85
2022/10/23 09:42:33;;;;;;;85.47;32.08;;;14.50;99.90;;;13.63;100.00;101250.94;5011076;28;20088;-88
2022/10/23 09:45:32;;;;;;;81.40;31.05;;;;;;;13.68;100.00;101257.72;5022255;28;20554;-88
2022/10/23 09:48:23;;;;;;;78.85;31.83;;;;;;;13.75;100.00;101267.03;5010290;28;20046;-87
2022/10/23 09:51:24;;;;;;;71.18;31.25;;;;;;;13.81;100.00;101265.88;5030429;28;20022;-88
2022/10/23 09:54:22;;;;;;;70.03;30.42;;;14.70;99.90;;;13.91;100.00;101263.63;4974673;28;20038;-87
2022/10/23 09:58:02;;;;;;;89.97;31.15;;;14.80;99.90;;;13.90;100.00;101264.56;5000618;23;20038;-88
2022/10/23 10:05:02;;;;;;;66.20;28.48;;;14.80;99.90;;;13.85;100.00;101267.44;4943188;28;20033;-88
2022/10/23 10:07:40;;;;;;;62.70;28.67;;;;;;;13.82;100.00;101270.25;5032882;28;20022;-87
2022/10/23 10:10:15;;;;;;;69.07;29.75;;;;;;;13.81;100.00;101265.03;5035937;28;20033;-87
2022/10/23 10:13:43;;;;;;;53.03;26.08;;;14.80;99.90;;;13.83;100.00;101271.09;5032577;28;20077;-87
2022/10/23 10:20:03;;;;;;;52.20;27.60;;;14.80;99.90;;;13.90;100.00;101264.56;5071463;22;20053;-87
2022/10/23 10:22:59;;;;;;;64.53;29.10;;;14.90;99.90;;;14.05;100.00;101253.16;4966896;28;20038;-87
2022/10/23 10:26:22;;;;;;;53.07;27.87;;;15.00;99.90;;;14.18;100.00;101248.06;5017177;28;20040;-87
2022/10/23 10:29:28;;;;;;;;;;;;;;;;;;;;;
2022/10/23 10:32:33;;;;;;;56.92;27.42;;;15.20;99.90;;;14.28;100.00;101254.59;5021543;28;20047;-87
2022/10/23 10:35:37;;;;;;;;;;;;;;;;;;;;;
2022/10/23 10:41:22;;;;;;;43.78;24.17;;;15.40;99.90;;;14.66;100.00;101245.50;5015666;28;20041;-87
2022/10/23 10:44:26;;;;;;;50.78;23.05;;;;;;;14.74;100.00;101246.78;5029220;28;20497;-87
2022/10/23 10:47:24;;;;;;;48.78;22.95;;;15.60;99.90;;;14.82;100.00;101249.03;5015398;28;20116;-87
2022/10/23 10:50:24;;;;;;;47.95;21.45;;;15.70;99.90;;;14.98;100.00;101254.31;5019231;28;20036;-87
2022/10/23 10:53:31;;;;;;;55.60;23.10;;;15.90;99.90;;;15.09;100.00;101248.41;5015403;28;20040;-87
2022/10/23 10:56:15;;;;;;;38.23;20.97;;;16.00;99.90;;;15.31;100.00;101251.53;4992592;28;20128;-87
2022/10/23 10:59:41;;;;;;;35.88;20.73;;;16.20;99.90;;;15.53;100.00;101260.91;5015598;28;20279;-87
2022/10/23 11:02:40;;;;;;;40.92;20.02;;;16.40;99.90;;;15.81;100.00;101254.84;4989492;28;20037;-86
2022/10/23 11:05:32;;;;;;;38.88;19.48;;;;;;;15.99;100.00;101253.69;5030775;28;20120;-87
2022/10/23 11:08:42;;;;;;;41.30;18.27;;;16.80;99.90;;;16.07;100.00;101255.03;5003392;28;20068;-85
2022/10/23 11:11:14;;;;;;;39.22;18.95;;;;;;;16.03;100.00;101249.06;5011093;28;20045;-86
2022/10/23 11:13:52;;;;;;;34.90;17.58;;;16.80;99.90;;;15.95;100.00;101252.16;5013185;28;20025;-86
2022/10/23 11:16:47;;;;;;;44.50;19.00;;;16.70;99.90;;;15.80;100.00;101237.19;5014060;28;20044;-85
2022/10/23 11:19:36;;;;;;;;;;;;;;;;;;;;;
2022/10/23 11:22:06;;;;;;;29.85;16.88;;;;;;;15.61;100.00;101232.06;5036616;28;20028;-86
2022/10/23 11:25:50;;;;;;;32.65;17.15;;;16.50;99.90;;;15.48;100.00;101220.47;5015565;28;20030;-86
2022/10/23 11:28:33;;;;;;;37.40;17.13;;;;;;;15.39;100.00;101212.13;4956523;28;20038;-86
2022/10/23 11:31:54;;;;;;;32.33;17.17;;;16.20;99.90;;;15.21;100.00;101202.59;4967691;28;20034;-84
2022/10/23 11:34:56;;;;;;;27.45;14.95;;;;;;;15.13;100.00;101204.84;5018187;28;20029;-86
2022/10/23 11:37:23;;;;;;;31.08;16.05;;;16.00;99.90;;;15.06;100.00;101203.50;5026925;28;20113;-86
2022/10/23 11:40:10;;;;;;;31.48;16.23;;;16.00;99.90;;;15.03;100.00;101193.06;5010238;28;20076;-85
2022/10/23 11:42:41;;;;;;;29.90;16.48;;;15.90;99.90;;;15.04;100.00;101189.47;5014055;28;20030;-86
2022/10/23 11:45:37;;;;;;;38.60;16.13;;;15.90;99.90;;;15.07;100.00;101176.03;5026997;28;20083;-86
2022/10/23 11:48:19;;;;;;;26.90;14.18;;;15.90;99.90;;;15.06;100.00;101172.53;5028496;28;20071;-85
2022/10/23 11:50:58;;;;;;;23.05;12.25;;;15.90;99.90;;;15.08;100.00;101180.41;5018069;28;20034;-86
2022/10/23 11:53:33;;;;;;;28.30;13.52;;;15.90;99.90;;;15.05;100.00;101167.28;5008174;28;20502;-84
2022/10/23 11:56:11;;;;;;;28.00;13.85;;;;;;;14.98;100.00;101162.34;5026170;28;20383;-86
2022/10/23 11:58:56;;;;;;;29.58;13.75;;;15.90;99.90;;;15.01;100.00;101158.69;5025301;28;20643;-86
2022/10/23 12:01:31;;;;;;;31.05;13.98;;;;;;;15.06;100.00;101150.47;5006884;28;20437;-85
2022/10/23 12:04:14;;;;;;;26.23;12.15;;;15.90;99.90;;;15.08;100.00;101148.56;5013688;28;20044;-86
2022/10/23 12:06:51;;;;;;;26.15;11.77;;;16.00;99.90;;;15.11;100.00;101143.91;5028461;28;20055;-86
2022/10/23 12:10:21;;;;;;;30.15;11.52;;;16.00;99.90;;;15.20;100.00;101139.88;5026316;28;20113;-86
2022/10/23 12:13:45;;;;;;;;;;;;;;;;;;;;;